SPEO2: Bird Creek, Sperry, OK

Data processed at Fri Mar 09 2018 23:08


All information presented herein is the property of the government of the United States of America and may be revised or deleted at any time without prior notice.
Dissemination of this information without the expressed written consent of the Public Affairs Office, Tulsa District U.S. Army Corps of Engineers is strictly prohibited.
These data are gathered electronically and, as presented, have not undergone any form of quality control. These data are not guaranteed to be valid or correct.
Go to home page.
Go to station list.

Upstream stations:

Downstream station:
Previous Day
Next Day
Current Day
    
SHEF ID:       SPEO2     Bird Creek near Sperry, OK
STATION TYPE:  

               PRECIP     STAGE  STAGE(2)  RIV-FLOW  WTR-TEMP   DIS-OXY        PH   CONDUCT  BAT-LOAD
                   in        ft        ft       cfs         F      mg/l        su   umho/cm      volt
              Ccp-Rev   Ccp-Rev   Ccp-Rev   Ccp-Rev   Ccp-Rev   Ccp-Rev   Ccp-Rev   Ccp-Rev   Ccp-Rev
(US/Central)
03/07 00:00      0.00      1.83      1.83       116     52.95      9.73      8.20       374     12.01
03/07 01:00      0.00      1.86      1.86       124     53.17      9.76      8.39       370     12.01
03/07 02:00      0.00      1.88      1.88       129     52.95      9.78      8.32       371     12.01
03/07 03:00      0.00      1.90      1.89       135     52.43      9.78      8.23       371     11.93
03/07 04:00      0.00      1.91      1.91       138     51.78      9.73      8.26       371     11.93
03/07 05:00      0.00      1.92      1.92       141     51.15      9.66      8.24       371     11.93
03/07 06:00      0.00      1.93      1.92       143     50.59      9.68      8.23       369     11.93
03/07 07:00      0.00      1.94      1.93       146     50.22      9.60      8.21       370     11.93
03/07 08:00      0.00      1.94      1.93       146     49.95      9.63      8.21       370     11.93
03/07 09:00      0.00      1.94      1.93       146     49.82      9.70      8.21       369     12.01
03/07 10:00      0.00      1.95      1.93       149     49.84      9.77      8.21       370     12.41
03/07 11:00      0.00      1.95      1.93       149     50.13      9.86      8.22       370     12.49
03/07 12:00      0.00      1.94      1.93       146     50.65      9.94      8.24       371     12.57
03/07 13:00      0.00      1.94      1.92       146     51.15      9.99      8.25       372     12.17
03/07 14:00      0.00      1.94      1.92       146     51.57     10.13      8.27       372     12.33
03/07 15:00      0.00      1.95      1.92       149     51.73     10.19      8.28       373     12.41
03/07 16:00      0.00      1.94      1.91       146     51.93     10.29      8.29       373     12.49
03/07 17:00      0.00      1.94      1.91       146     52.02     10.32      8.29       374     12.41
03/07 18:00      0.00      1.93      1.91       143     52.18     10.38      8.31       373     12.25
03/07 19:00      0.00      1.93      1.91       143     52.43     10.37      8.31       372     12.09
03/07 20:00      0.00      1.93      1.91       143     52.77     10.35      8.33       372     12.09
03/07 21:00      0.00      1.93      1.91       143     53.10     10.32      8.33       372     12.09
03/07 22:00      0.00      1.93      1.91       143     53.19     10.34      8.34       372     12.01
03/07 23:00      0.00      1.93      1.91       143     53.04     10.28      8.34       372     12.01